Latest Coastal Weather Observations for Ulladulla

IDN60701

Issued at 8:51 am EDT Wednesday 13 December 2017 (issued every 10 minutes, with the page automatically refreshed every 10 minutes)

About coastal observations | Map of coastal stations | Coastal observations for NSW | Marine services | Other Formats
Station Details ID: 069138 Name: ULLADULLA AWS Lat: -35.36 Lon: 150.48 Height: 35.7 m
Data from the previous 72 hours. | See also: Recent months at Ulladulla
Date/Time
EDT
Temp
°C
Wind Pressure Rain since
9am
mm
Weather Cloud Vis
km
Sea
Height
m
Swell
Dir  Spd
kts
Gust
kts
hPa Trend Height
m
Period
s
Dir
13/08:30am 21.3 NNE 2 4 1014.2 - 0.0 - - - - - - -
13/08:00am 21.0 CALM 0 2 1014.4 - 0.0 - - - - - - -
13/07:30am 20.4 S 1 2 1014.3 - 0.0 - - - - - - -
13/07:00am 20.1 CALM 0 1 1013.9 - 0.0 - - - - - - -
13/06:30am 19.4 NNW 1 2 1013.6 - 0.0 - - - - - - -
13/06:00am 18.6 CALM 0 0 1013.6 - 0.0 - - - - - - -
13/05:30am 18.1 CALM 0 0 1013.5 - 0.0 - - - - - - -
13/05:00am 18.4 CALM 0 0 1013.5 - 0.0 - - - - - - -
13/04:30am 18.5 CALM 0 1 1013.4 - 0.0 - - - - - - -
13/04:00am 18.7 CALM 0 0 1013.4 - 0.0 - - - - - - -
13/03:30am 18.4 CALM 0 0 1013.5 - 0.0 - - - - - - -
13/03:00am 19.1 CALM 0 0 1013.7 - 0.0 - - - - - - -
13/02:30am 19.1 CALM 0 0 1013.7 - 0.0 - - - - - - -
13/02:00am 19.5 CALM 0 0 1014.1 - 0.0 - - - - - - -
13/01:30am 19.5 CALM 0 0 1014.5 - 0.0 - - - - - - -
13/01:00am 19.7 CALM 0 0 1014.9 - 0.0 - - - - - - -
13/12:30am 20.4 N 2 3 1015.2 - 0.0 - - - - - - -
13/12:00am 20.5 N 2 3 1015.6 - 0.0 - - - - - - -
 
Date/Time
EDT
Temp
°C
Wind Pressure Rain since
9am
mm
Weather Cloud Vis
km
Sea
Height
m
Swell
Dir  Spd
kts
Gust
kts
hPa Trend Height
m
Period
s
Dir
12/11:30pm 20.8 NNE 1 4 1016.0 - 0.0 - - - - - - -
12/11:00pm 20.8 NE 7 11 1016.1 - 0.0 - - - - - - -
12/10:30pm 20.9 NE 9 11 1016.2 - 0.0 - - - - - - -
12/10:00pm 20.8 NE 9 12 1016.3 - 0.0 - - - - - - -
12/09:30pm 20.6 NNE 8 11 1016.1 - 0.0 - - - - - - -
12/09:00pm 20.6 NE 4 7 1016.1 - 0.0 - - - - - - -
12/08:30pm 20.6 NE 4 7 1016.0 - 0.0 - - - - - - -
12/08:00pm 20.7 NE 6 9 1015.7 - 0.0 - - - - - - -
12/07:30pm 20.8 NE 3 6 1015.5 - 0.0 - - - - - - -
12/07:00pm 21.1 NNE 9 13 1015.1 - 0.0 - - - - - - -
12/06:30pm 21.2 NNE 8 11 1014.9 - 0.0 - - - - - - -
12/06:00pm 21.6 NNE 7 10 1014.7 - 0.0 - - - - - - -
12/05:30pm 21.9 NE 7 12 1014.5 - 0.0 - - - - - - -
12/05:00pm 22.2 NE 7 11 1014.7 - 0.0 - - - - - - -
12/04:30pm 22.2 NE 8 11 1014.7 - 0.0 - - - - - - -
12/04:00pm 22.5 NE 7 12 1014.9 - 0.0 - - - - - - -
12/03:30pm 22.7 NE 8 13 1014.9 - 0.0 - - - - - - -
12/03:00pm 22.2 NE 10 16 1015.0 - 0.0 - - - - - - -
12/02:30pm 22.4 NNE 9 13 1015.3 - 0.0 - - - - - - -
12/02:00pm 22.3 NE 9 14 1015.7 - 0.0 - - - - - - -
12/01:30pm 22.9 NE 7 13 1016.0 - 0.0 - - - - - - -
12/01:00pm 22.5 NE 8 13 1016.5 - 0.0 - - - - - - -
12/12:30pm 22.5 NE 6 11 1017.1 - 0.0 - - - - - - -
12/12:00pm 22.0 ENE 6 9 1017.5 - 0.0 - - - - - - -
12/11:30am 22.1 E 5 8 1017.9 - 0.0 - - - - - - -
12/11:00am 21.6 ENE 5 7 1018.1 - 0.0 - - - - - - -
12/10:30am 21.3 E 4 6 1018.4 - 0.0 - - - - - - -
12/10:00am 21.3 ENE 4 6 1018.6 - 0.0 - - - - - - -
12/09:30am 21.1 ESE 2 5 1019.0 - 0.0 - - - - - - -
12/09:00am 20.9 SSE 3 4 1018.9 - 0.0 - - - - - - -
12/08:30am 20.1 ENE 2 4 1019.0 - 0.0 - - - - - - -
12/08:00am 19.4 S 1 3 1018.9 - 0.0 - - - - - - -
12/07:30am 18.9 SSW 1 3 1019.0 - 0.0 - - - - - - -
12/07:00am 18.5 SSW 3 5 1018.7 - 0.0 - - - - - - -
12/06:30am 18.2 SSW 2 4 1018.4 - 0.0 - - - - - - -
12/06:00am 17.9 SW 1 3 1018.2 - 0.0 - - - - - - -
12/05:30am 17.6 SSW 4 5 1017.9 - 0.0 - - - - - - -
12/05:00am 17.9 SW 4 5 1017.9 - 0.0 - - - - - - -
12/04:30am 17.9 SW 4 6 1017.8 - 0.0 - - - - - - -
12/04:00am 17.9 SW 4 5 1017.8 - 0.0 - - - - - - -
12/03:30am 18.1 WSW 4 5 1017.9 - 0.0 - - - - - - -
12/03:00am 18.2 SW 4 5 1018.2 - 0.0 - - - - - - -
12/02:30am 18.3 SW 3 5 1018.5 - 0.0 - - - - - - -
12/02:00am 18.7 WSW 3 5 1018.8 - 0.0 - - - - - - -
12/01:30am 19.0 WSW 4 5 1019.1 - 0.0 - - - - - - -
12/01:00am 19.3 W 3 4 1019.2 - 0.0 - - - - - - -
12/12:30am 19.6 W 1 3 1019.5 - 0.0 - - - - - - -
12/12:00am 19.9 WNW 1 3 1019.7 - 0.0 - - - - - - -
 
Date/Time
EDT
Temp
°C
Wind Pressure Rain since
9am
mm
Weather Cloud Vis
km
Sea
Height
m
Swell
Dir  Spd
kts
Gust
kts
hPa Trend Height
m
Period
s
Dir
11/11:30pm 20.1 W 1 3 1020.0 - 0.0 - - - - - - -
11/11:00pm 20.1 CALM 0 1 1020.1 - 0.0 - - - - - - -
11/10:30pm 20.0 WSW 1 3 1020.1 - 0.0 - - - - - - -
11/10:00pm 20.1 SSW 3 4 1020.1 - 0.0 - - - - - - -
11/09:30pm 20.1 S 6 8 1019.8 - 0.0 - - - - - - -
11/09:00pm 20.4 S 6 7 1019.6 - 0.0 - - - - - - -
11/08:30pm 20.6 SSW 4 7 1019.2 - 0.0 - - - - - - -
11/08:00pm 20.5 SSW 7 10 1018.9 - 0.0 - - - - - - -
11/07:30pm 20.6 SSW 7 9 1018.7 - 0.0 - - - - - - -
11/07:00pm 20.8 SSW 5 7 1018.4 - 0.0 - - - - - - -
11/06:30pm 21.0 SSW 4 6 1018.1 - 0.0 - - - - - - -
11/06:00pm 21.1 SSW 4 5 1017.9 - 0.0 - - - - - - -
11/05:30pm 21.0 S 4 5 1017.7 - 0.0 - - - - - - -
11/05:00pm 21.0 S 6 7 1017.7 - 0.0 - - - - - - -
11/04:30pm 21.4 SSE 3 3 1017.6 - 0.0 - - - - - - -
11/04:00pm 21.7 SSE 3 4 1017.7 - 0.0 - - - - - - -
11/03:30pm 22.4 E 4 7 1017.7 - 0.0 - - - - - - -
11/03:00pm 21.9 SSE 4 7 1018.0 - 0.0 - - - - - - -
11/02:30pm 22.6 SSE 4 6 1018.0 - 0.0 - - - - - - -
11/02:00pm 22.6 S 4 6 1018.3 - 0.0 - - - - - - -
11/01:30pm 22.5 S 6 8 1018.4 - 0.0 - - - - - - -
11/01:00pm 22.1 S 8 9 1018.8 - 0.0 - - - - - - -
11/12:30pm 21.7 S 11 13 1019.1 - 0.0 - - - - - - -
11/12:00pm 22.1 S 9 12 1019.4 - 0.0 - - - - - - -
11/11:30am 22.3 S 8 10 1019.6 - 0.0 - - - - - - -
11/11:00am 21.4 S 10 13 1019.9 - 0.0 - - - - - - -
11/10:30am 21.2 S 10 12 1019.8 - 0.0 - - - - - - -
11/10:00am 21.5 S 9 11 1020.1 - 0.0 - - - - - - -
11/09:30am 22.1 S 6 9 1020.4 - 0.0 - - - - - - -
11/09:00am 21.5 SSW 6 9 1020.5 - 0.0 - - - - - - -
11/08:30am 21.1 SSW 6 9 1020.5 - 0.0 - - - - - - -
11/08:00am 20.3 SW 4 6 1020.3 - 0.0 - - - - - - -
11/07:30am 19.4 SW 4 7 1020.1 - 0.0 - - - - - - -
11/07:00am 18.4 WSW 3 6 1019.9 - 0.0 - - - - - - -
11/06:30am 17.6 W 4 6 1019.5 - 0.0 - - - - - - -
11/06:00am 16.9 WSW 4 6 1019.4 - 0.0 - - - - - - -
11/05:30am 16.9 WSW 4 6 1019.0 - 0.0 - - - - - - -
11/05:00am 17.0 WSW 4 5 1018.7 - 0.0 - - - - - - -
11/04:30am 17.0 WSW 4 6 1018.5 - 0.0 - - - - - - -
11/04:00am 17.1 WSW 4 6 1018.7 - 0.0 - - - - - - -
11/03:30am 17.2 WSW 3 5 1018.9 - 0.0 - - - - - - -
11/03:00am 17.2 WSW 3 5 1019.1 - 0.0 - - - - - - -
11/02:30am 17.2 WSW 4 6 1019.3 - 0.0 - - - - - - -
11/02:00am 17.2 WSW 4 7 1019.8 - 0.0 - - - - - - -
11/01:30am 17.3 W 4 6 1020.3 - 0.0 - - - - - - -
11/01:00am 17.4 W 4 5 1020.6 - 0.0 - - - - - - -
11/12:30am 17.7 WSW 3 4 1021.1 - 0.0 - - - - - - -
11/12:00am 18.3 N 1 3 1021.2 - 0.0 - - - - - - -
 
Date/Time
EDT
Temp
°C
Wind Pressure Rain since
9am
mm
Weather Cloud Vis
km
Sea
Height
m
Swell
Dir  Spd
kts
Gust
kts
hPa Trend Height
m
Period
s
Dir
10/11:30pm 18.9 NE 1 3 1021.2 - 0.0 - - - - - - -
10/11:00pm 19.1 ENE 2 3 1021.4 - 0.0 - - - - - - -
10/10:30pm 19.1 ENE 2 4 1021.2 - 0.0 - - - - - - -
10/10:00pm 19.4 NE 3 6 1021.1 - 0.0 - - - - - - -
10/09:30pm 19.5 NNE 5 8 1020.9 - 0.0 - - - - - - -
10/09:00pm 19.7 NE 8 11 1020.6 - 0.0 - - - - - - -
10/08:30pm 19.8 NE 9 12 1020.4 - 0.0 - - - - - - -
10/08:00pm 19.9 NE 10 15 1020.0 - 0.0 - - - - - - -
10/07:30pm 20.0 NE 10 13 1019.8 - 0.0 - - - - - - -
10/07:00pm 20.2 NE 9 13 1019.6 - 0.0 - - - - - - -
10/06:30pm 20.7 NE 6 10 1019.4 - 0.0 - - - - - - -
10/06:00pm 21.0 NE 6 11 1019.2 - 0.0 - - - - - - -
10/05:30pm 20.9 NE 9 13 1019.1 - 0.0 - - - - - - -
10/05:00pm 20.9 NNE 7 10 1019.2 - 0.0 - - - - - - -
10/04:30pm 21.1 NNE 8 11 1019.3 - 0.0 - - - - - - -
10/04:00pm 20.9 NNE 10 14 1019.3 - 0.0 - - - - - - -
10/03:30pm 21.0 NNE 9 16 1019.5 - 0.0 - - - - - - -
10/03:00pm 21.0 NE 10 16 1019.6 - 0.0 - - - - - - -
10/02:30pm 21.2 NE 10 15 1019.9 - 0.0 - - - - - - -
10/02:00pm 21.2 NE 9 13 1020.0 - 0.0 - - - - - - -
10/01:30pm 21.5 NE 7 14 1020.3 - 0.0 - - - - - - -
10/01:00pm 21.6 NE 8 14 1020.6 - 0.0 - - - - - - -
10/12:30pm 21.6 NE 7 12 1020.9 - 0.0 - - - - - - -
10/12:00pm 22.0 NE 7 12 1021.3 - 0.0 - - - - - - -
10/11:30am 21.3 ENE 8 13 1021.5 - 0.0 - - - - - - -
10/11:00am 21.4 ENE 6 9 1021.8 - 0.0 - - - - - - -
10/10:30am 21.1 ENE 5 10 1022.2 - 0.0 - - - - - - -
10/10:00am 20.6 ENE 4 7 1022.3 - 0.0 - - - - - - -
10/09:30am 20.2 NE 4 5 1022.5 - 0.0 - - - - - - -
10/09:00am 20.0 NNE 3 4 1022.5 - 0.0 - - - - - - -

Other Formats:

Comma delimited format used in spreadsheet applications
http://www.bom.gov.au/fwo/IDN60701/IDN60701.94938.axf

JavaScript Object Notation format (JSON) in row-major order
http://www.bom.gov.au/fwo/IDN60701/IDN60701.94938.json